sensor_id;sensor_type;location;lat;lon;timestamp;temperature;humidity
4306;DHT22;2166;49.926;8.608;2022-07-23T00:01:55;22.50;69.50
4306;DHT22;2166;49.926;8.608;2022-07-23T00:04:23;22.50;69.50
4306;DHT22;2166;49.926;8.608;2022-07-23T00:06:52;22.40;69.60
4306;DHT22;2166;49.926;8.608;2022-07-23T00:09:20;22.40;69.60
4306;DHT22;2166;49.926;8.608;2022-07-23T00:11:48;22.30;69.70
4306;DHT22;2166;49.926;8.608;2022-07-23T00:14:17;22.20;69.90
4306;DHT22;2166;49.926;8.608;2022-07-23T00:16:45;22.10;70.10
4306;DHT22;2166;49.926;8.608;2022-07-23T00:19:14;22.10;70.30
4306;DHT22;2166;49.926;8.608;2022-07-23T00:21:42;22.00;70.30
4306;DHT22;2166;49.926;8.608;2022-07-23T00:24:11;22.00;70.30
4306;DHT22;2166;49.926;8.608;2022-07-23T00:26:39;22.00;70.40
4306;DHT22;2166;49.926;8.608;2022-07-23T00:29:07;22.00;70.30
4306;DHT22;2166;49.926;8.608;2022-07-23T00:31:37;22.00;70.10
4306;DHT22;2166;49.926;8.608;2022-07-23T00:34:05;22.10;70.20
4306;DHT22;2166;49.926;8.608;2022-07-23T00:36:33;22.10;70.20
4306;DHT22;2166;49.926;8.608;2022-07-23T00:39:02;22.10;70.20
4306;DHT22;2166;49.926;8.608;2022-07-23T00:41:30;22.10;70.10
4306;DHT22;2166;49.926;8.608;2022-07-23T00:44:14;22.20;70.00
4306;DHT22;2166;49.926;8.608;2022-07-23T00:46:52;22.20;70.00
4306;DHT22;2166;49.926;8.608;2022-07-23T00:49:21;22.10;70.30
4306;DHT22;2166;49.926;8.608;2022-07-23T00:51:49;22.10;70.40
4306;DHT22;2166;49.926;8.608;2022-07-23T00:54:18;22.10;70.20
4306;DHT22;2166;49.926;8.608;2022-07-23T00:56:47;22.00;70.20
4306;DHT22;2166;49.926;8.608;2022-07-23T00:59:15;22.00;70.40
4306;DHT22;2166;49.926;8.608;2022-07-23T01:01:43;21.90;70.50
4306;DHT22;2166;49.926;8.608;2022-07-23T01:04:16;21.90;70.50
4306;DHT22;2166;49.926;8.608;2022-07-23T01:06:45;21.80;70.70
4306;DHT22;2166;49.926;8.608;2022-07-23T01:09:13;21.70;71.00
4306;DHT22;2166;49.926;8.608;2022-07-23T01:11:42;21.60;71.00
4306;DHT22;2166;49.926;8.608;2022-07-23T01:14:12;21.60;71.10
4306;DHT22;2166;49.926;8.608;2022-07-23T01:16:42;21.60;70.90
4306;DHT22;2166;49.926;8.608;2022-07-23T01:19:11;21.60;71.00
4306;DHT22;2166;49.926;8.608;2022-07-23T01:21:43;21.70;70.90
4306;DHT22;2166;49.926;8.608;2022-07-23T01:24:14;21.70;71.00
4306;DHT22;2166;49.926;8.608;2022-07-23T01:26:53;21.60;71.90
4306;DHT22;2166;49.926;8.608;2022-07-23T01:29:21;21.50;72.80
4306;DHT22;2166;49.926;8.608;2022-07-23T01:31:50;21.40;73.30
4306;DHT22;2166;49.926;8.608;2022-07-23T01:34:19;21.20;73.40
4306;DHT22;2166;49.926;8.608;2022-07-23T01:36:47;21.10;74.20
4306;DHT22;2166;49.926;8.608;2022-07-23T01:39:18;20.80;75.00
4306;DHT22;2166;49.926;8.608;2022-07-23T01:41:47;20.60;75.60
4306;DHT22;2166;49.926;8.608;2022-07-23T01:44:19;20.40;76.10
4306;DHT22;2166;49.926;8.608;2022-07-23T01:46:47;20.20;76.40
4306;DHT22;2166;49.926;8.608;2022-07-23T01:49:18;20.10;76.60
4306;DHT22;2166;49.926;8.608;2022-07-23T01:51:58;20.00;76.90
4306;DHT22;2166;49.926;8.608;2022-07-23T01:54:38;19.90;77.00
4306;DHT22;2166;49.926;8.608;2022-07-23T01:57:08;19.80;77.10
4306;DHT22;2166;49.926;8.608;2022-07-23T01:59:38;19.80;77.20
4306;DHT22;2166;49.926;8.608;2022-07-23T02:02:08;19.80;77.20
4306;DHT22;2166;49.926;8.608;2022-07-23T02:04:37;19.80;77.40
4306;DHT22;2166;49.926;8.608;2022-07-23T02:07:05;19.80;77.30
4306;DHT22;2166;49.926;8.608;2022-07-23T02:09:33;19.90;77.30
4306;DHT22;2166;49.926;8.608;2022-07-23T02:12:04;19.90;77.20
4306;DHT22;2166;49.926;8.608;2022-07-23T02:14:32;19.90;77.10
4306;DHT22;2166;49.926;8.608;2022-07-23T02:17:02;20.10;76.60
4306;DHT22;2166;49.926;8.608;2022-07-23T02:19:30;20.20;76.30
4306;DHT22;2166;49.926;8.608;2022-07-23T02:21:58;20.30;75.90
4306;DHT22;2166;49.926;8.608;2022-07-23T02:24:26;20.30;75.70
4306;DHT22;2166;49.926;8.608;2022-07-23T02:26:55;20.30;75.70
4306;DHT22;2166;49.926;8.608;2022-07-23T02:29:24;20.20;76.00
4306;DHT22;2166;49.926;8.608;2022-07-23T02:31:53;20.10;76.00
4306;DHT22;2166;49.926;8.608;2022-07-23T02:34:22;20.10;76.00
4306;DHT22;2166;49.926;8.608;2022-07-23T02:36:51;20.00;76.40
4306;DHT22;2166;49.926;8.608;2022-07-23T02:39:21;19.90;76.60
4306;DHT22;2166;49.926;8.608;2022-07-23T02:41:49;20.00;76.50
4306;DHT22;2166;49.926;8.608;2022-07-23T02:44:18;20.00;76.50
4306;DHT22;2166;49.926;8.608;2022-07-23T02:46:51;20.10;76.40
4306;DHT22;2166;49.926;8.608;2022-07-23T02:49:19;20.10;76.20
4306;DHT22;2166;49.926;8.608;2022-07-23T02:51:50;20.20;76.00
4306;DHT22;2166;49.926;8.608;2022-07-23T02:54:18;20.20;76.00
4306;DHT22;2166;49.926;8.608;2022-07-23T02:56:46;20.30;75.80
4306;DHT22;2166;49.926;8.608;2022-07-23T02:59:15;20.40;75.60
4306;DHT22;2166;49.926;8.608;2022-07-23T03:01:43;20.40;75.60
4306;DHT22;2166;49.926;8.608;2022-07-23T03:04:13;20.40;75.50
4306;DHT22;2166;49.926;8.608;2022-07-23T03:06:42;20.50;75.40
4306;DHT22;2166;49.926;8.608;2022-07-23T03:09:11;20.50;75.30
4306;DHT22;2166;49.926;8.608;2022-07-23T03:11:39;20.50;75.40
4306;DHT22;2166;49.926;8.608;2022-07-23T03:14:07;20.50;75.40
4306;DHT22;2166;49.926;8.608;2022-07-23T03:16:36;20.50;75.20
4306;DHT22;2166;49.926;8.608;2022-07-23T03:19:04;20.50;75.40
4306;DHT22;2166;49.926;8.608;2022-07-23T03:21:34;20.50;75.40
4306;DHT22;2166;49.926;8.608;2022-07-23T03:24:07;20.50;75.40
4306;DHT22;2166;49.926;8.608;2022-07-23T03:26:36;20.50;75.30
4306;DHT22;2166;49.926;8.608;2022-07-23T03:29:05;20.50;75.30
4306;DHT22;2166;49.926;8.608;2022-07-23T03:31:33;20.50;75.30
4306;DHT22;2166;49.926;8.608;2022-07-23T03:34:01;20.50;75.30
4306;DHT22;2166;49.926;8.608;2022-07-23T03:36:30;20.50;75.30
4306;DHT22;2166;49.926;8.608;2022-07-23T03:39:00;20.50;75.30
4306;DHT22;2166;49.926;8.608;2022-07-23T03:41:29;20.40;75.30
4306;DHT22;2166;49.926;8.608;2022-07-23T03:43:57;20.40;75.20
4306;DHT22;2166;49.926;8.608;2022-07-23T03:46:26;20.40;75.40
4306;DHT22;2166;49.926;8.608;2022-07-23T03:48:54;20.30;75.50
4306;DHT22;2166;49.926;8.608;2022-07-23T03:51:25;20.30;75.60
4306;DHT22;2166;49.926;8.608;2022-07-23T03:53:53;20.30;75.60
4306;DHT22;2166;49.926;8.608;2022-07-23T03:56:23;20.30;75.50
4306;DHT22;2166;49.926;8.608;2022-07-23T03:58:52;20.40;75.50
4306;DHT22;2166;49.926;8.608;2022-07-23T04:01:20;20.40;75.30
4306;DHT22;2166;49.926;8.608;2022-07-23T04:03:49;20.40;75.40
4306;DHT22;2166;49.926;8.608;2022-07-23T04:06:17;20.40;75.30
4306;DHT22;2166;49.926;8.608;2022-07-23T04:08:46;20.40;75.30
4306;DHT22;2166;49.926;8.608;2022-07-23T04:11:14;20.40;75.40
4306;DHT22;2166;49.926;8.608;2022-07-23T04:13:44;20.40;75.30
4306;DHT22;2166;49.926;8.608;2022-07-23T04:16:13;20.40;75.40
4306;DHT22;2166;49.926;8.608;2022-07-23T04:18:41;20.40;75.40
4306;DHT22;2166;49.926;8.608;2022-07-23T04:21:14;20.40;75.40
4306;DHT22;2166;49.926;8.608;2022-07-23T04:23:44;20.40;75.50
4306;DHT22;2166;49.926;8.608;2022-07-23T04:26:13;20.40;75.50
4306;DHT22;2166;49.926;8.608;2022-07-23T04:28:46;20.50;75.60
4306;DHT22;2166;49.926;8.608;2022-07-23T04:31:14;20.60;75.20
4306;DHT22;2166;49.926;8.608;2022-07-23T04:33:42;20.60;75.10
4306;DHT22;2166;49.926;8.608;2022-07-23T04:36:11;20.70;75.00
4306;DHT22;2166;49.926;8.608;2022-07-23T04:38:39;20.80;74.90
4306;DHT22;2166;49.926;8.608;2022-07-23T04:41:08;20.90;74.70
4306;DHT22;2166;49.926;8.608;2022-07-23T04:43:38;21.00;74.20
4306;DHT22;2166;49.926;8.608;2022-07-23T04:46:07;21.20;73.80
4306;DHT22;2166;49.926;8.608;2022-07-23T04:48:44;21.30;73.30
4306;DHT22;2166;49.926;8.608;2022-07-23T04:51:13;21.70;72.80
4306;DHT22;2166;49.926;8.608;2022-07-23T04:53:41;22.30;71.70
4306;DHT22;2166;49.926;8.608;2022-07-23T04:56:10;22.80;70.50
4306;DHT22;2166;49.926;8.608;2022-07-23T04:58:38;23.20;69.50
4306;DHT22;2166;49.926;8.608;2022-07-23T05:01:08;23.10;69.40
4306;DHT22;2166;49.926;8.608;2022-07-23T05:03:37;22.90;69.80
4306;DHT22;2166;49.926;8.608;2022-07-23T05:06:05;22.60;70.20
4306;DHT22;2166;49.926;8.608;2022-07-23T05:08:33;22.40;70.60
4306;DHT22;2166;49.926;8.608;2022-07-23T05:11:01;22.20;70.80
4306;DHT22;2166;49.926;8.608;2022-07-23T05:13:30;22.00;71.30
4306;DHT22;2166;49.926;8.608;2022-07-23T05:15:58;21.80;71.70
4306;DHT22;2166;49.926;8.608;2022-07-23T05:18:29;21.70;71.90
4306;DHT22;2166;49.926;8.608;2022-07-23T05:20:57;21.60;72.30
4306;DHT22;2166;49.926;8.608;2022-07-23T05:23:25;21.50;72.50
4306;DHT22;2166;49.926;8.608;2022-07-23T05:25:53;21.50;72.60
4306;DHT22;2166;49.926;8.608;2022-07-23T05:28:22;21.50;72.60
4306;DHT22;2166;49.926;8.608;2022-07-23T05:30:52;21.40;72.70
4306;DHT22;2166;49.926;8.608;2022-07-23T05:33:21;21.50;72.50
4306;DHT22;2166;49.926;8.608;2022-07-23T05:35:51;21.60;72.60
4306;DHT22;2166;49.926;8.608;2022-07-23T05:38:26;21.70;72.30
4306;DHT22;2166;49.926;8.608;2022-07-23T05:40:58;21.80;72.20
4306;DHT22;2166;49.926;8.608;2022-07-23T05:43:28;21.90;71.90
4306;DHT22;2166;49.926;8.608;2022-07-23T05:45:59;22.10;71.60
4306;DHT22;2166;49.926;8.608;2022-07-23T05:48:28;22.10;71.40
4306;DHT22;2166;49.926;8.608;2022-07-23T05:51:13;22.20;71.10
4306;DHT22;2166;49.926;8.608;2022-07-23T05:53:41;22.30;70.90
4306;DHT22;2166;49.926;8.608;2022-07-23T05:56:14;22.30;70.80
4306;DHT22;2166;49.926;8.608;2022-07-23T05:58:43;22.30;70.80
4306;DHT22;2166;49.926;8.608;2022-07-23T06:01:12;22.30;70.70
4306;DHT22;2166;49.926;8.608;2022-07-23T06:03:49;22.40;70.70
4306;DHT22;2166;49.926;8.608;2022-07-23T06:06:19;22.70;70.60
4306;DHT22;2166;49.926;8.608;2022-07-23T06:08:47;23.90;69.00
4306;DHT22;2166;49.926;8.608;2022-07-23T06:11:15;25.60;66.90
4306;DHT22;2166;49.926;8.608;2022-07-23T06:13:45;26.50;64.90
4306;DHT22;2166;49.926;8.608;2022-07-23T06:16:13;26.30;64.50
4306;DHT22;2166;49.926;8.608;2022-07-23T06:18:41;26.00;64.90
4306;DHT22;2166;49.926;8.608;2022-07-23T06:21:10;25.50;65.40
4306;DHT22;2166;49.926;8.608;2022-07-23T06:24:00;25.20;66.00
4306;DHT22;2166;49.926;8.608;2022-07-23T06:26:28;25.00;66.30
4306;DHT22;2166;49.926;8.608;2022-07-23T06:28:56;24.70;66.60
4306;DHT22;2166;49.926;8.608;2022-07-23T06:31:25;24.50;66.80
4306;DHT22;2166;49.926;8.608;2022-07-23T06:33:54;24.60;67.00
4306;DHT22;2166;49.926;8.608;2022-07-23T06:36:22;24.60;66.40
4306;DHT22;2166;49.926;8.608;2022-07-23T06:38:50;24.50;66.50
4306;DHT22;2166;49.926;8.608;2022-07-23T06:41:19;24.70;66.00
4306;DHT22;2166;49.926;8.608;2022-07-23T06:43:49;25.70;64.50
4306;DHT22;2166;49.926;8.608;2022-07-23T06:46:17;26.90;62.10
4306;DHT22;2166;49.926;8.608;2022-07-23T06:48:46;27.90;60.20
4306;DHT22;2166;49.926;8.608;2022-07-23T06:51:14;28.80;58.30
4306;DHT22;2166;49.926;8.608;2022-07-23T06:53:42;29.50;56.60
4306;DHT22;2166;49.926;8.608;2022-07-23T06:56:10;30.00;55.30
4306;DHT22;2166;49.926;8.608;2022-07-23T06:58:41;30.50;54.10
4306;DHT22;2166;49.926;8.608;2022-07-23T07:01:09;31.50;52.80
4306;DHT22;2166;49.926;8.608;2022-07-23T07:03:37;31.80;50.90
4306;DHT22;2166;49.926;8.608;2022-07-23T07:06:05;32.30;50.50
4306;DHT22;2166;49.926;8.608;2022-07-23T07:08:33;33.10;48.70
4306;DHT22;2166;49.926;8.608;2022-07-23T07:11:02;33.60;47.70
4306;DHT22;2166;49.926;8.608;2022-07-23T07:13:30;34.20;46.40
4306;DHT22;2166;49.926;8.608;2022-07-23T07:16:00;34.40;46.00
4306;DHT22;2166;49.926;8.608;2022-07-23T07:18:28;35.30;44.50
4306;DHT22;2166;49.926;8.608;2022-07-23T07:20:57;36.20;43.40
4306;DHT22;2166;49.926;8.608;2022-07-23T07:23:25;36.20;42.70
4306;DHT22;2166;49.926;8.608;2022-07-23T07:25:53;35.70;43.00
4306;DHT22;2166;49.926;8.608;2022-07-23T07:28:21;36.20;42.90
4306;DHT22;2166;49.926;8.608;2022-07-23T07:30:49;37.00;41.30
4306;DHT22;2166;49.926;8.608;2022-07-23T07:33:19;37.60;40.40
4306;DHT22;2166;49.926;8.608;2022-07-23T07:35:48;38.10;39.70
4306;DHT22;2166;49.926;8.608;2022-07-23T07:38:17;38.90;38.60
4306;DHT22;2166;49.926;8.608;2022-07-23T07:40:45;39.30;38.10
4306;DHT22;2166;49.926;8.608;2022-07-23T07:43:13;39.30;38.10
4306;DHT22;2166;49.926;8.608;2022-07-23T07:45:41;39.70;37.50
4306;DHT22;2166;49.926;8.608;2022-07-23T07:48:10;39.70;37.40
4306;DHT22;2166;49.926;8.608;2022-07-23T07:50:39;40.10;37.00
4306;DHT22;2166;49.926;8.608;2022-07-23T07:53:08;40.80;36.10
4306;DHT22;2166;49.926;8.608;2022-07-23T07:55:36;40.80;35.90
4306;DHT22;2166;49.926;8.608;2022-07-23T07:58:05;41.30;35.40
4306;DHT22;2166;49.926;8.608;2022-07-23T08:00:34;41.30;35.40
4306;DHT22;2166;49.926;8.608;2022-07-23T08:03:02;40.90;35.50
4306;DHT22;2166;49.926;8.608;2022-07-23T08:05:31;40.60;36.00
4306;DHT22;2166;49.926;8.608;2022-07-23T08:08:00;39.30;37.20
4306;DHT22;2166;49.926;8.608;2022-07-23T08:10:29;37.00;39.80
4306;DHT22;2166;49.926;8.608;2022-07-23T08:12:59;35.50;42.00
4306;DHT22;2166;49.926;8.608;2022-07-23T08:15:29;34.80;43.00
4306;DHT22;2166;49.926;8.608;2022-07-23T08:17:58;34.10;44.40
4306;DHT22;2166;49.926;8.608;2022-07-23T08:20:26;33.60;45.10
4306;DHT22;2166;49.926;8.608;2022-07-23T08:22:57;33.30;45.70
4306;DHT22;2166;49.926;8.608;2022-07-23T08:25:29;33.20;46.00
4306;DHT22;2166;49.926;8.608;2022-07-23T08:27:59;33.10;46.20
4306;DHT22;2166;49.926;8.608;2022-07-23T08:30:28;33.60;45.70
4306;DHT22;2166;49.926;8.608;2022-07-23T08:32:58;35.50;43.00
4306;DHT22;2166;49.926;8.608;2022-07-23T08:35:29;36.80;40.60
4306;DHT22;2166;49.926;8.608;2022-07-23T08:37:58;37.40;39.90
4306;DHT22;2166;49.926;8.608;2022-07-23T08:40:29;37.20;39.90
4306;DHT22;2166;49.926;8.608;2022-07-23T08:42:58;37.20;40.00
4306;DHT22;2166;49.926;8.608;2022-07-23T08:45:27;37.50;39.80
4306;DHT22;2166;49.926;8.608;2022-07-23T08:47:57;37.20;39.80
4306;DHT22;2166;49.926;8.608;2022-07-23T08:50:29;37.80;39.60
4306;DHT22;2166;49.926;8.608;2022-07-23T08:52:59;39.00;37.70
4306;DHT22;2166;49.926;8.608;2022-07-23T08:55:29;39.90;37.10
4306;DHT22;2166;49.926;8.608;2022-07-23T08:57:57;41.00;36.10
4306;DHT22;2166;49.926;8.608;2022-07-23T09:00:25;42.20;34.00
4306;DHT22;2166;49.926;8.608;2022-07-23T09:02:54;43.40;32.90
4306;DHT22;2166;49.926;8.608;2022-07-23T09:05:22;43.90;31.80
4306;DHT22;2166;49.926;8.608;2022-07-23T09:08:04;43.30;32.60
4306;DHT22;2166;49.926;8.608;2022-07-23T09:10:43;43.30;32.60
4306;DHT22;2166;49.926;8.608;2022-07-23T09:13:30;43.30;32.40
4306;DHT22;2166;49.926;8.608;2022-07-23T09:16:01;42.50;33.60
4306;DHT22;2166;49.926;8.608;2022-07-23T09:18:38;43.10;33.10
4306;DHT22;2166;49.926;8.608;2022-07-23T09:21:16;44.10;32.10
4306;DHT22;2166;49.926;8.608;2022-07-23T09:23:46;44.10;31.80
4306;DHT22;2166;49.926;8.608;2022-07-23T09:29:06;45.10;31.10
4306;DHT22;2166;49.926;8.608;2022-07-23T09:31:42;45.70;30.40
4306;DHT22;2166;49.926;8.608;2022-07-23T09:34:14;45.30;30.40
4306;DHT22;2166;49.926;8.608;2022-07-23T09:36:43;45.20;30.90
4306;DHT22;2166;49.926;8.608;2022-07-23T09:39:13;45.10;31.00
4306;DHT22;2166;49.926;8.608;2022-07-23T09:41:44;45.40;30.70
4306;DHT22;2166;49.926;8.608;2022-07-23T09:44:15;44.90;30.50
4306;DHT22;2166;49.926;8.608;2022-07-23T09:46:44;45.10;30.60
4306;DHT22;2166;49.926;8.608;2022-07-23T09:49:18;45.70;30.50
4306;DHT22;2166;49.926;8.608;2022-07-23T09:51:50;45.80;29.90
4306;DHT22;2166;49.926;8.608;2022-07-23T09:54:27;46.10;30.00
4306;DHT22;2166;49.926;8.608;2022-07-23T09:56:59;46.60;29.70
4306;DHT22;2166;49.926;8.608;2022-07-23T09:59:29;47.20;29.10
4306;DHT22;2166;49.926;8.608;2022-07-23T10:01:58;46.90;28.90
4306;DHT22;2166;49.926;8.608;2022-07-23T10:04:33;45.60;30.10
4306;DHT22;2166;49.926;8.608;2022-07-23T10:07:21;44.20;31.10
4306;DHT22;2166;49.926;8.608;2022-07-23T10:10:10;43.70;31.80
4306;DHT22;2166;49.926;8.608;2022-07-23T10:12:59;43.60;31.90
4306;DHT22;2166;49.926;8.608;2022-07-23T10:15:48;43.30;32.00
4306;DHT22;2166;49.926;8.608;2022-07-23T10:18:17;44.30;31.10
4306;DHT22;2166;49.926;8.608;2022-07-23T10:20:47;45.10;30.80
4306;DHT22;2166;49.926;8.608;2022-07-23T10:23:24;44.80;30.50
4306;DHT22;2166;49.926;8.608;2022-07-23T10:25:59;44.00;31.10
4306;DHT22;2166;49.926;8.608;2022-07-23T10:29:02;43.00;32.20
4306;DHT22;2166;49.926;8.608;2022-07-23T10:31:45;43.90;31.60
4306;DHT22;2166;49.926;8.608;2022-07-23T10:34:36;43.80;32.10
4306;DHT22;2166;49.926;8.608;2022-07-23T10:37:14;43.10;32.30
4306;DHT22;2166;49.926;8.608;2022-07-23T10:39:48;41.90;33.40
4306;DHT22;2166;49.926;8.608;2022-07-23T10:42:36;41.30;34.20
4306;DHT22;2166;49.926;8.608;2022-07-23T10:45:24;40.70;34.60
4306;DHT22;2166;49.926;8.608;2022-07-23T10:47:53;40.10;35.40
4306;DHT22;2166;49.926;8.608;2022-07-23T10:50:24;40.10;35.70
4306;DHT22;2166;49.926;8.608;2022-07-23T10:53:16;40.50;35.10
4306;DHT22;2166;49.926;8.608;2022-07-23T10:55:48;42.70;33.00
4306;DHT22;2166;49.926;8.608;2022-07-23T10:58:22;44.30;31.40
4306;DHT22;2166;49.926;8.608;2022-07-23T11:00:51;45.40;30.40
4306;DHT22;2166;49.926;8.608;2022-07-23T11:03:38;45.30;30.50
4306;DHT22;2166;49.926;8.608;2022-07-23T11:06:07;45.50;30.60
4306;DHT22;2166;49.926;8.608;2022-07-23T11:08:35;46.00;30.10
4306;DHT22;2166;49.926;8.608;2022-07-23T11:11:10;44.80;30.90
4306;DHT22;2166;49.926;8.608;2022-07-23T11:13:47;43.10;32.30
4306;DHT22;2166;49.926;8.608;2022-07-23T11:16:24;41.30;33.50
4306;DHT22;2166;49.926;8.608;2022-07-23T11:19:04;41.00;34.80
4306;DHT22;2166;49.926;8.608;2022-07-23T11:21:51;41.40;33.90
4306;DHT22;2166;49.926;8.608;2022-07-23T11:24:22;42.70;32.80
4306;DHT22;2166;49.926;8.608;2022-07-23T11:26:54;43.60;31.40
4306;DHT22;2166;49.926;8.608;2022-07-23T11:29:42;43.10;31.70
4306;DHT22;2166;49.926;8.608;2022-07-23T11:32:31;43.80;31.50
4306;DHT22;2166;49.926;8.608;2022-07-23T11:35:03;43.70;31.50
4306;DHT22;2166;49.926;8.608;2022-07-23T11:37:37;43.60;31.60
4306;DHT22;2166;49.926;8.608;2022-07-23T11:40:09;44.90;30.50
4306;DHT22;2166;49.926;8.608;2022-07-23T11:42:39;46.20;29.10
4306;DHT22;2166;49.926;8.608;2022-07-23T11:45:08;46.30;29.20
4306;DHT22;2166;49.926;8.608;2022-07-23T11:47:38;45.30;29.00
4306;DHT22;2166;49.926;8.608;2022-07-23T11:50:07;44.20;30.40
4306;DHT22;2166;49.926;8.608;2022-07-23T11:52:35;43.60;30.80
4306;DHT22;2166;49.926;8.608;2022-07-23T11:55:06;43.30;31.60
4306;DHT22;2166;49.926;8.608;2022-07-23T11:57:36;43.40;31.10
4306;DHT22;2166;49.926;8.608;2022-07-23T12:00:07;43.20;31.20
4306;DHT22;2166;49.926;8.608;2022-07-23T12:02:42;42.60;32.10
4306;DHT22;2166;49.926;8.608;2022-07-23T12:05:12;42.50;31.90
4306;DHT22;2166;49.926;8.608;2022-07-23T12:07:42;43.10;31.10
4306;DHT22;2166;49.926;8.608;2022-07-23T12:10:14;42.50;31.80
4306;DHT22;2166;49.926;8.608;2022-07-23T12:12:44;41.90;32.60
4306;DHT22;2166;49.926;8.608;2022-07-23T12:15:14;42.10;32.80
4306;DHT22;2166;49.926;8.608;2022-07-23T12:17:45;42.00;32.40
4306;DHT22;2166;49.926;8.608;2022-07-23T12:20:20;42.10;32.20
4306;DHT22;2166;49.926;8.608;2022-07-23T12:22:50;42.30;32.00
4306;DHT22;2166;49.926;8.608;2022-07-23T12:25:20;43.10;30.70
4306;DHT22;2166;49.926;8.608;2022-07-23T12:27:59;42.90;30.70
4306;DHT22;2166;49.926;8.608;2022-07-23T12:30:31;43.20;30.00
4306;DHT22;2166;49.926;8.608;2022-07-23T12:33:02;42.80;30.00
4306;DHT22;2166;49.926;8.608;2022-07-23T12:35:34;42.20;30.50
4306;DHT22;2166;49.926;8.608;2022-07-23T12:38:04;42.40;30.70
4306;DHT22;2166;49.926;8.608;2022-07-23T12:40:34;43.00;30.80
4306;DHT22;2166;49.926;8.608;2022-07-23T12:43:05;44.10;29.10
4306;DHT22;2166;49.926;8.608;2022-07-23T12:45:45;44.30;28.70
4306;DHT22;2166;49.926;8.608;2022-07-23T12:48:25;44.50;28.80
4306;DHT22;2166;49.926;8.608;2022-07-23T12:50:57;45.50;27.90
4306;DHT22;2166;49.926;8.608;2022-07-23T12:53:28;46.80;27.10
4306;DHT22;2166;49.926;8.608;2022-07-23T12:56:03;47.40;26.50
4306;DHT22;2166;49.926;8.608;2022-07-23T12:58:44;47.40;27.00
4306;DHT22;2166;49.926;8.608;2022-07-23T13:01:29;47.90;26.00
4306;DHT22;2166;49.926;8.608;2022-07-23T13:04:03;48.20;25.90
4306;DHT22;2166;49.926;8.608;2022-07-23T13:06:42;48.70;26.00
4306;DHT22;2166;49.926;8.608;2022-07-23T13:09:12;49.10;25.70
4306;DHT22;2166;49.926;8.608;2022-07-23T13:11:41;48.80;25.70
4306;DHT22;2166;49.926;8.608;2022-07-23T13:14:10;48.60;25.90
4306;DHT22;2166;49.926;8.608;2022-07-23T13:16:40;48.70;25.80
4306;DHT22;2166;49.926;8.608;2022-07-23T13:19:11;47.70;26.00
4306;DHT22;2166;49.926;8.608;2022-07-23T13:21:41;46.50;26.90
4306;DHT22;2166;49.926;8.608;2022-07-23T13:24:11;45.70;27.60
4306;DHT22;2166;49.926;8.608;2022-07-23T13:26:41;44.90;27.40
4306;DHT22;2166;49.926;8.608;2022-07-23T13:29:09;44.60;27.70
4306;DHT22;2166;49.926;8.608;2022-07-23T13:31:38;43.80;28.80
4306;DHT22;2166;49.926;8.608;2022-07-23T13:34:06;43.30;29.50
4306;DHT22;2166;49.926;8.608;2022-07-23T13:36:36;42.30;29.90
4306;DHT22;2166;49.926;8.608;2022-07-23T13:39:05;42.30;30.10
4306;DHT22;2166;49.926;8.608;2022-07-23T13:41:36;43.10;29.50
4306;DHT22;2166;49.926;8.608;2022-07-23T13:44:05;43.60;28.90
4306;DHT22;2166;49.926;8.608;2022-07-23T13:46:34;43.80;28.60
4306;DHT22;2166;49.926;8.608;2022-07-23T13:49:02;43.50;29.00
4306;DHT22;2166;49.926;8.608;2022-07-23T13:51:32;44.10;29.00
4306;DHT22;2166;49.926;8.608;2022-07-23T13:54:02;44.00;28.90
4306;DHT22;2166;49.926;8.608;2022-07-23T13:56:35;44.10;28.70
4306;DHT22;2166;49.926;8.608;2022-07-23T13:59:03;44.50;28.80
4306;DHT22;2166;49.926;8.608;2022-07-23T14:01:32;44.20;28.40
4306;DHT22;2166;49.926;8.608;2022-07-23T14:04:16;43.80;28.90
4306;DHT22;2166;49.926;8.608;2022-07-23T14:06:45;43.70;29.10
4306;DHT22;2166;49.926;8.608;2022-07-23T14:09:20;44.10;29.00
4306;DHT22;2166;49.926;8.608;2022-07-23T14:11:48;44.90;28.40
4306;DHT22;2166;49.926;8.608;2022-07-23T14:14:18;44.70;28.10
4306;DHT22;2166;49.926;8.608;2022-07-23T14:16:48;44.80;28.30
4306;DHT22;2166;49.926;8.608;2022-07-23T14:19:16;44.50;28.10
4306;DHT22;2166;49.926;8.608;2022-07-23T14:21:45;43.40;29.10
4306;DHT22;2166;49.926;8.608;2022-07-23T14:24:15;42.20;30.20
4306;DHT22;2166;49.926;8.608;2022-07-23T14:26:46;41.00;31.70
4306;DHT22;2166;49.926;8.608;2022-07-23T14:29:14;40.30;32.20
4306;DHT22;2166;49.926;8.608;2022-07-23T14:31:42;39.80;32.40
4306;DHT22;2166;49.926;8.608;2022-07-23T14:34:13;39.10;32.70
4306;DHT22;2166;49.926;8.608;2022-07-23T14:36:42;38.90;33.40
4306;DHT22;2166;49.926;8.608;2022-07-23T14:39:10;38.40;33.70
4306;DHT22;2166;49.926;8.608;2022-07-23T14:41:39;38.00;33.80
4306;DHT22;2166;49.926;8.608;2022-07-23T14:44:10;37.30;35.10
4306;DHT22;2166;49.926;8.608;2022-07-23T14:46:39;37.00;35.90
4306;DHT22;2166;49.926;8.608;2022-07-23T14:49:07;37.50;35.60
4306;DHT22;2166;49.926;8.608;2022-07-23T14:51:36;38.00;35.20
4306;DHT22;2166;49.926;8.608;2022-07-23T14:54:05;38.40;34.90
4306;DHT22;2166;49.926;8.608;2022-07-23T14:56:34;38.50;34.30
4306;DHT22;2166;49.926;8.608;2022-07-23T14:59:03;38.00;34.60
4306;DHT22;2166;49.926;8.608;2022-07-23T15:01:34;37.60;35.40
4306;DHT22;2166;49.926;8.608;2022-07-23T15:04:03;37.60;35.40
4306;DHT22;2166;49.926;8.608;2022-07-23T15:06:52;37.50;35.80
4306;DHT22;2166;49.926;8.608;2022-07-23T15:09:20;36.80;35.90
4306;DHT22;2166;49.926;8.608;2022-07-23T15:11:49;36.50;36.50
4306;DHT22;2166;49.926;8.608;2022-07-23T15:14:17;36.60;36.30
4306;DHT22;2166;49.926;8.608;2022-07-23T15:16:56;37.50;35.40
4306;DHT22;2166;49.926;8.608;2022-07-23T15:19:28;38.40;34.40
4306;DHT22;2166;49.926;8.608;2022-07-23T15:21:56;38.60;34.00
4306;DHT22;2166;49.926;8.608;2022-07-23T15:24:28;38.10;34.10
4306;DHT22;2166;49.926;8.608;2022-07-23T15:26:56;38.00;34.70
4306;DHT22;2166;49.926;8.608;2022-07-23T15:29:25;37.90;34.30
4306;DHT22;2166;49.926;8.608;2022-07-23T15:31:56;38.30;34.40
4306;DHT22;2166;49.926;8.608;2022-07-23T15:34:25;38.20;34.30
4306;DHT22;2166;49.926;8.608;2022-07-23T15:36:53;38.10;34.20
4306;DHT22;2166;49.926;8.608;2022-07-23T15:39:22;37.60;34.90
4306;DHT22;2166;49.926;8.608;2022-07-23T15:41:51;37.30;35.30
4306;DHT22;2166;49.926;8.608;2022-07-23T15:44:19;37.00;35.30
4306;DHT22;2166;49.926;8.608;2022-07-23T15:47:11;37.20;35.40
4306;DHT22;2166;49.926;8.608;2022-07-23T15:49:40;37.60;34.60
4306;DHT22;2166;49.926;8.608;2022-07-23T15:52:08;37.50;34.30
4306;DHT22;2166;49.926;8.608;2022-07-23T15:54:38;37.50;34.30
4306;DHT22;2166;49.926;8.608;2022-07-23T15:57:07;37.70;34.10
4306;DHT22;2166;49.926;8.608;2022-07-23T15:59:35;37.80;33.90
4306;DHT22;2166;49.926;8.608;2022-07-23T16:02:04;37.70;33.90
4306;DHT22;2166;49.926;8.608;2022-07-23T16:04:33;37.70;33.90
4306;DHT22;2166;49.926;8.608;2022-07-23T16:07:02;37.80;34.10
4306;DHT22;2166;49.926;8.608;2022-07-23T16:09:30;37.70;34.20
4306;DHT22;2166;49.926;8.608;2022-07-23T16:11:59;37.30;34.60
4306;DHT22;2166;49.926;8.608;2022-07-23T16:14:30;37.00;35.00
4306;DHT22;2166;49.926;8.608;2022-07-23T16:16:58;36.70;35.10
4306;DHT22;2166;49.926;8.608;2022-07-23T16:19:26;36.40;35.30
4306;DHT22;2166;49.926;8.608;2022-07-23T16:21:56;35.80;35.90
4306;DHT22;2166;49.926;8.608;2022-07-23T16:24:24;35.40;36.60
4306;DHT22;2166;49.926;8.608;2022-07-23T16:26:52;35.00;36.90
4306;DHT22;2166;49.926;8.608;2022-07-23T16:29:20;34.70;37.30